sensor_id;sensor_type;location;lat;lon;timestamp;P1;durP1;ratioP1;P2;durP2;ratioP2
49193;SDS011;35029;50.804;12.866;2023-07-02T00:00:02;3.50;;;2.22;;
49193;SDS011;35029;50.804;12.866;2023-07-02T00:02:35;3.15;;;1.98;;
49193;SDS011;35029;50.804;12.866;2023-07-02T00:05:02;2.65;;;2.17;;
49193;SDS011;35029;50.804;12.866;2023-07-02T00:07:28;2.20;;;1.77;;
49193;SDS011;35029;50.804;12.866;2023-07-02T00:09:54;5.20;;;2.08;;
49193;SDS011;35029;50.804;12.866;2023-07-02T00:12:19;4.38;;;2.15;;
49193;SDS011;35029;50.804;12.866;2023-07-02T00:14:45;2.33;;;1.70;;
49193;SDS011;35029;50.804;12.866;2023-07-02T00:17:11;3.63;;;2.03;;
49193;SDS011;35029;50.804;12.866;2023-07-02T00:19:40;2.22;;;2.00;;
49193;SDS011;35029;50.804;12.866;2023-07-02T00:22:07;2.15;;;1.90;;
49193;SDS011;35029;50.804;12.866;2023-07-02T00:24:34;2.10;;;1.73;;
49193;SDS011;35029;50.804;12.866;2023-07-02T00:27:00;3.00;;;1.92;;
49193;SDS011;35029;50.804;12.866;2023-07-02T00:29:26;2.63;;;1.73;;
49193;SDS011;35029;50.804;12.866;2023-07-02T00:31:51;6.43;;;2.42;;
49193;SDS011;35029;50.804;12.866;2023-07-02T00:34:17;2.42;;;1.80;;
49193;SDS011;35029;50.804;12.866;2023-07-02T00:36:43;2.38;;;1.88;;
49193;SDS011;35029;50.804;12.866;2023-07-02T00:39:09;6.63;;;2.05;;
49193;SDS011;35029;50.804;12.866;2023-07-02T00:41:37;3.85;;;1.60;;
49193;SDS011;35029;50.804;12.866;2023-07-02T00:44:03;3.90;;;1.67;;
49193;SDS011;35029;50.804;12.866;2023-07-02T00:46:29;2.30;;;1.63;;
49193;SDS011;35029;50.804;12.866;2023-07-02T00:48:56;3.65;;;1.80;;
49193;SDS011;35029;50.804;12.866;2023-07-02T00:51:22;3.38;;;1.55;;
49193;SDS011;35029;50.804;12.866;2023-07-02T00:53:51;1.83;;;1.60;;
49193;SDS011;35029;50.804;12.866;2023-07-02T00:56:18;2.45;;;1.90;;
49193;SDS011;35029;50.804;12.866;2023-07-02T00:58:46;1.95;;;1.75;;
49193;SDS011;35029;50.804;12.866;2023-07-02T01:06:25;3.03;;;1.77;;
49193;SDS011;35029;50.804;12.866;2023-07-02T01:08:56;2.63;;;1.75;;
49193;SDS011;35029;50.804;12.866;2023-07-02T01:11:33;3.38;;;1.90;;
49193;SDS011;35029;50.804;12.866;2023-07-02T01:14:48;6.05;;;1.77;;
49193;SDS011;35029;50.804;12.866;2023-07-02T01:17:07;2.08;;;1.60;;
49193;SDS011;35029;50.804;12.866;2023-07-02T01:19:41;6.35;;;1.83;;
49193;SDS011;35029;50.804;12.866;2023-07-02T01:22:07;4.20;;;1.83;;
49193;SDS011;35029;50.804;12.866;2023-07-02T01:24:34;2.03;;;1.63;;
49193;SDS011;35029;50.804;12.866;2023-07-02T01:27:02;3.65;;;1.80;;
49193;SDS011;35029;50.804;12.866;2023-07-02T01:29:29;2.97;;;1.67;;
49193;SDS011;35029;50.804;12.866;2023-07-02T01:31:55;3.13;;;1.77;;
49193;SDS011;35029;50.804;12.866;2023-07-02T01:34:21;1.90;;;1.70;;
49193;SDS011;35029;50.804;12.866;2023-07-02T01:36:47;3.80;;;1.80;;
49193;SDS011;35029;50.804;12.866;2023-07-02T01:39:13;1.98;;;1.83;;
49193;SDS011;35029;50.804;12.866;2023-07-02T01:41:50;2.08;;;1.75;;
49193;SDS011;35029;50.804;12.866;2023-07-02T01:44:17;3.78;;;1.70;;
49193;SDS011;35029;50.804;12.866;2023-07-02T01:46:43;1.80;;;1.70;;
49193;SDS011;35029;50.804;12.866;2023-07-02T01:49:11;4.10;;;2.00;;
49193;SDS011;35029;50.804;12.866;2023-07-02T01:51:36;4.03;;;1.73;;
49193;SDS011;35029;50.804;12.866;2023-07-02T01:54:03;5.60;;;2.03;;
49193;SDS011;35029;50.804;12.866;2023-07-02T01:56:29;2.22;;;1.70;;
49193;SDS011;35029;50.804;12.866;2023-07-02T01:58:55;4.22;;;2.58;;
49193;SDS011;35029;50.804;12.866;2023-07-02T02:01:20;4.03;;;2.08;;
49193;SDS011;35029;50.804;12.866;2023-07-02T02:03:46;2.25;;;1.75;;
49193;SDS011;35029;50.804;12.866;2023-07-02T02:06:11;10.02;;;2.17;;
49193;SDS011;35029;50.804;12.866;2023-07-02T02:08:37;2.03;;;1.83;;
49193;SDS011;35029;50.804;12.866;2023-07-02T02:11:03;5.25;;;2.10;;
49193;SDS011;35029;50.804;12.866;2023-07-02T02:13:28;5.53;;;2.00;;
49193;SDS011;35029;50.804;12.866;2023-07-02T02:15:54;3.13;;;1.98;;
49193;SDS011;35029;50.804;12.866;2023-07-02T02:18:20;2.13;;;1.73;;
49193;SDS011;35029;50.804;12.866;2023-07-02T02:20:45;4.60;;;1.92;;
49193;SDS011;35029;50.804;12.866;2023-07-02T02:23:11;3.05;;;1.98;;
49193;SDS011;35029;50.804;12.866;2023-07-02T02:25:37;3.60;;;1.90;;
49193;SDS011;35029;50.804;12.866;2023-07-02T02:28:02;2.97;;;1.85;;
49193;SDS011;35029;50.804;12.866;2023-07-02T02:30:28;4.30;;;1.88;;
49193;SDS011;35029;50.804;12.866;2023-07-02T02:32:54;4.00;;;1.77;;
49193;SDS011;35029;50.804;12.866;2023-07-02T02:35:20;4.07;;;2.08;;
49193;SDS011;35029;50.804;12.866;2023-07-02T02:37:46;3.65;;;1.80;;
49193;SDS011;35029;50.804;12.866;2023-07-02T02:40:11;2.20;;;1.55;;
49193;SDS011;35029;50.804;12.866;2023-07-02T02:42:39;2.85;;;1.90;;
49193;SDS011;35029;50.804;12.866;2023-07-02T02:45:04;3.72;;;1.70;;
49193;SDS011;35029;50.804;12.866;2023-07-02T02:47:30;3.05;;;2.00;;
49193;SDS011;35029;50.804;12.866;2023-07-02T02:49:56;4.70;;;1.80;;
49193;SDS011;35029;50.804;12.866;2023-07-02T02:52:21;3.08;;;1.80;;
49193;SDS011;35029;50.804;12.866;2023-07-02T02:54:47;3.35;;;1.85;;
49193;SDS011;35029;50.804;12.866;2023-07-02T02:57:13;1.70;;;1.50;;
49193;SDS011;35029;50.804;12.866;2023-07-02T02:59:38;3.78;;;1.75;;
49193;SDS011;35029;50.804;12.866;2023-07-02T03:02:04;4.78;;;2.40;;
49193;SDS011;35029;50.804;12.866;2023-07-02T03:04:30;3.95;;;1.90;;
49193;SDS011;35029;50.804;12.866;2023-07-02T03:06:55;4.53;;;1.80;;
49193;SDS011;35029;50.804;12.866;2023-07-02T03:09:21;4.40;;;1.90;;
49193;SDS011;35029;50.804;12.866;2023-07-02T03:11:47;2.55;;;2.05;;
49193;SDS011;35029;50.804;12.866;2023-07-02T03:14:13;3.17;;;1.92;;
49193;SDS011;35029;50.804;12.866;2023-07-02T03:16:41;2.55;;;1.77;;
49193;SDS011;35029;50.804;12.866;2023-07-02T03:19:07;2.78;;;1.60;;
49193;SDS011;35029;50.804;12.866;2023-07-02T03:21:33;4.07;;;1.88;;
49193;SDS011;35029;50.804;12.866;2023-07-02T03:23:58;3.75;;;2.72;;
49193;SDS011;35029;50.804;12.866;2023-07-02T03:26:24;3.58;;;2.08;;
49193;SDS011;35029;50.804;12.866;2023-07-02T03:28:50;2.72;;;1.98;;
49193;SDS011;35029;50.804;12.866;2023-07-02T03:31:15;4.82;;;1.90;;
49193;SDS011;35029;50.804;12.866;2023-07-02T03:33:41;6.10;;;2.35;;
49193;SDS011;35029;50.804;12.866;2023-07-02T03:36:06;3.53;;;2.30;;
49193;SDS011;35029;50.804;12.866;2023-07-02T03:38:32;4.70;;;2.00;;
49193;SDS011;35029;50.804;12.866;2023-07-02T03:40:58;4.03;;;2.10;;
49193;SDS011;35029;50.804;12.866;2023-07-02T03:43:23;6.75;;;2.45;;
49193;SDS011;35029;50.804;12.866;2023-07-02T03:45:51;4.05;;;2.33;;
49193;SDS011;35029;50.804;12.866;2023-07-02T03:48:17;4.25;;;2.08;;
49193;SDS011;35029;50.804;12.866;2023-07-02T03:50:43;2.42;;;2.20;;
49193;SDS011;35029;50.804;12.866;2023-07-02T03:53:08;3.72;;;2.38;;
49193;SDS011;35029;50.804;12.866;2023-07-02T03:55:35;2.05;;;1.95;;
49193;SDS011;35029;50.804;12.866;2023-07-02T03:58:00;2.63;;;2.22;;
49193;SDS011;35029;50.804;12.866;2023-07-02T04:00:26;2.22;;;2.00;;
49193;SDS011;35029;50.804;12.866;2023-07-02T04:02:51;2.65;;;2.40;;
49193;SDS011;35029;50.804;12.866;2023-07-02T04:05:17;5.47;;;2.47;;
49193;SDS011;35029;50.804;12.866;2023-07-02T04:07:43;6.55;;;2.40;;
49193;SDS011;35029;50.804;12.866;2023-07-02T04:10:09;4.13;;;2.58;;
49193;SDS011;35029;50.804;12.866;2023-07-02T04:12:34;3.10;;;2.80;;
49193;SDS011;35029;50.804;12.866;2023-07-02T04:15:00;2.90;;;2.70;;
49193;SDS011;35029;50.804;12.866;2023-07-02T04:17:26;4.88;;;2.60;;
49193;SDS011;35029;50.804;12.866;2023-07-02T04:19:53;2.97;;;2.67;;
49193;SDS011;35029;50.804;12.866;2023-07-02T04:22:20;2.42;;;2.15;;
49193;SDS011;35029;50.804;12.866;2023-07-02T04:24:46;2.85;;;2.38;;
49193;SDS011;35029;50.804;12.866;2023-07-02T04:27:16;2.80;;;2.30;;
49193;SDS011;35029;50.804;12.866;2023-07-02T04:29:43;3.78;;;2.55;;
49193;SDS011;35029;50.804;12.866;2023-07-02T04:32:09;3.08;;;2.78;;
49193;SDS011;35029;50.804;12.866;2023-07-02T04:34:35;3.03;;;2.83;;
49193;SDS011;35029;50.804;12.866;2023-07-02T04:37:04;5.07;;;3.00;;
49193;SDS011;35029;50.804;12.866;2023-07-02T04:39:30;3.22;;;2.42;;
49193;SDS011;35029;50.804;12.866;2023-07-02T04:41:56;3.90;;;2.60;;
49193;SDS011;35029;50.804;12.866;2023-07-02T04:44:22;3.53;;;2.70;;
49193;SDS011;35029;50.804;12.866;2023-07-02T04:46:57;2.72;;;2.50;;
49193;SDS011;35029;50.804;12.866;2023-07-02T04:49:24;5.07;;;2.87;;
49193;SDS011;35029;50.804;12.866;2023-07-02T04:51:50;3.25;;;2.97;;
49193;SDS011;35029;50.804;12.866;2023-07-02T04:54:16;3.45;;;2.95;;
49193;SDS011;35029;50.804;12.866;2023-07-02T04:56:41;4.70;;;3.30;;
49193;SDS011;35029;50.804;12.866;2023-07-02T04:59:07;5.18;;;3.42;;
49193;SDS011;35029;50.804;12.866;2023-07-02T05:01:32;6.68;;;3.67;;
49193;SDS011;35029;50.804;12.866;2023-07-02T05:03:58;3.80;;;3.50;;
49193;SDS011;35029;50.804;12.866;2023-07-02T05:06:23;3.60;;;3.30;;
49193;SDS011;35029;50.804;12.866;2023-07-02T05:08:49;4.88;;;3.70;;
49193;SDS011;35029;50.804;12.866;2023-07-02T05:11:14;5.63;;;3.72;;
49193;SDS011;35029;50.804;12.866;2023-07-02T05:13:40;3.63;;;3.30;;
49193;SDS011;35029;50.804;12.866;2023-07-02T05:16:05;3.55;;;3.22;;
49193;SDS011;35029;50.804;12.866;2023-07-02T05:18:31;7.57;;;3.38;;
49193;SDS011;35029;50.804;12.866;2023-07-02T05:20:56;3.88;;;3.58;;
49193;SDS011;35029;50.804;12.866;2023-07-02T05:23:22;5.32;;;3.20;;
49193;SDS011;35029;50.804;12.866;2023-07-02T05:25:48;3.92;;;3.53;;
49193;SDS011;35029;50.804;12.866;2023-07-02T05:28:13;5.10;;;3.67;;
49193;SDS011;35029;50.804;12.866;2023-07-02T05:30:39;3.53;;;3.22;;
49193;SDS011;35029;50.804;12.866;2023-07-02T05:33:04;3.72;;;3.40;;
49193;SDS011;35029;50.804;12.866;2023-07-02T05:35:30;4.63;;;3.97;;
49193;SDS011;35029;50.804;12.866;2023-07-02T05:37:55;4.30;;;3.67;;
49193;SDS011;35029;50.804;12.866;2023-07-02T05:40:21;6.10;;;3.88;;
49193;SDS011;35029;50.804;12.866;2023-07-02T05:42:47;4.82;;;3.60;;
49193;SDS011;35029;50.804;12.866;2023-07-02T05:45:12;5.50;;;3.85;;
49193;SDS011;35029;50.804;12.866;2023-07-02T05:47:38;4.53;;;4.13;;
49193;SDS011;35029;50.804;12.866;2023-07-02T05:50:04;6.45;;;4.10;;
49193;SDS011;35029;50.804;12.866;2023-07-02T05:52:30;4.18;;;3.88;;
49193;SDS011;35029;50.804;12.866;2023-07-02T05:54:56;4.32;;;3.92;;
49193;SDS011;35029;50.804;12.866;2023-07-02T05:57:21;5.82;;;4.50;;
49193;SDS011;35029;50.804;12.866;2023-07-02T05:59:47;4.00;;;3.70;;
49193;SDS011;35029;50.804;12.866;2023-07-02T06:02:12;5.70;;;5.10;;
49193;SDS011;35029;50.804;12.866;2023-07-02T06:04:38;7.32;;;4.75;;
49193;SDS011;35029;50.804;12.866;2023-07-02T06:07:03;5.25;;;4.75;;
49193;SDS011;35029;50.804;12.866;2023-07-02T06:09:29;8.15;;;4.30;;
49193;SDS011;35029;50.804;12.866;2023-07-02T06:11:55;6.97;;;4.47;;
49193;SDS011;35029;50.804;12.866;2023-07-02T06:14:20;5.53;;;4.65;;
49193;SDS011;35029;50.804;12.866;2023-07-02T06:16:47;5.93;;;5.43;;
49193;SDS011;35029;50.804;12.866;2023-07-02T06:19:12;5.22;;;4.72;;
49193;SDS011;35029;50.804;12.866;2023-07-02T06:21:37;7.35;;;5.80;;
49193;SDS011;35029;50.804;12.866;2023-07-02T06:24:03;9.98;;;5.45;;
49193;SDS011;35029;50.804;12.866;2023-07-02T06:26:29;6.18;;;5.65;;
49193;SDS011;35029;50.804;12.866;2023-07-02T06:28:56;7.13;;;6.43;;
49193;SDS011;35029;50.804;12.866;2023-07-02T06:31:22;7.47;;;5.40;;
49193;SDS011;35029;50.804;12.866;2023-07-02T06:33:47;6.32;;;5.55;;
49193;SDS011;35029;50.804;12.866;2023-07-02T06:36:13;7.07;;;5.32;;
49193;SDS011;35029;50.804;12.866;2023-07-02T06:38:40;6.28;;;5.28;;
49193;SDS011;35029;50.804;12.866;2023-07-02T06:41:05;5.15;;;4.75;;
49193;SDS011;35029;50.804;12.866;2023-07-02T06:43:31;5.68;;;4.47;;
49193;SDS011;35029;50.804;12.866;2023-07-02T06:45:56;4.68;;;4.15;;
49193;SDS011;35029;50.804;12.866;2023-07-02T06:48:22;5.30;;;4.80;;
49193;SDS011;35029;50.804;12.866;2023-07-02T06:50:47;7.57;;;4.85;;
49193;SDS011;35029;50.804;12.866;2023-07-02T06:53:13;5.40;;;4.20;;
49193;SDS011;35029;50.804;12.866;2023-07-02T06:55:39;4.25;;;3.95;;
49193;SDS011;35029;50.804;12.866;2023-07-02T06:58:05;5.00;;;4.15;;
49193;SDS011;35029;50.804;12.866;2023-07-02T07:00:31;3.67;;;3.38;;
49193;SDS011;35029;50.804;12.866;2023-07-02T07:03:01;6.07;;;4.03;;
49193;SDS011;35029;50.804;12.866;2023-07-02T07:05:29;4.40;;;4.03;;
49193;SDS011;35029;50.804;12.866;2023-07-02T07:07:56;4.72;;;4.22;;
49193;SDS011;35029;50.804;12.866;2023-07-02T07:10:21;5.10;;;4.20;;
49193;SDS011;35029;50.804;12.866;2023-07-02T07:12:46;9.35;;;3.63;;
49193;SDS011;35029;50.804;12.866;2023-07-02T07:15:12;4.18;;;3.17;;
49193;SDS011;35029;50.804;12.866;2023-07-02T07:17:38;7.35;;;4.22;;
49193;SDS011;35029;50.804;12.866;2023-07-02T07:20:03;4.20;;;3.80;;
49193;SDS011;35029;50.804;12.866;2023-07-02T07:22:30;5.50;;;3.75;;
49193;SDS011;35029;50.804;12.866;2023-07-02T07:24:56;5.05;;;3.72;;
49193;SDS011;35029;50.804;12.866;2023-07-02T07:27:22;4.20;;;3.63;;
49193;SDS011;35029;50.804;12.866;2023-07-02T07:29:47;3.78;;;3.47;;
49193;SDS011;35029;50.804;12.866;2023-07-02T07:32:13;4.60;;;3.95;;
49193;SDS011;35029;50.804;12.866;2023-07-02T07:34:38;3.90;;;3.22;;
49193;SDS011;35029;50.804;12.866;2023-07-02T07:37:04;4.05;;;3.10;;
49193;SDS011;35029;50.804;12.866;2023-07-02T07:39:30;3.28;;;2.97;;
49193;SDS011;35029;50.804;12.866;2023-07-02T07:41:55;3.50;;;2.97;;
49193;SDS011;35029;50.804;12.866;2023-07-02T07:44:21;5.25;;;3.40;;
49193;SDS011;35029;50.804;12.866;2023-07-02T07:46:47;3.65;;;3.35;;
49193;SDS011;35029;50.804;12.866;2023-07-02T07:49:13;4.18;;;2.88;;
49193;SDS011;35029;50.804;12.866;2023-07-02T07:51:39;2.97;;;2.67;;
49193;SDS011;35029;50.804;12.866;2023-07-02T07:54:04;3.53;;;2.40;;
49193;SDS011;35029;50.804;12.866;2023-07-02T07:56:30;4.20;;;2.65;;
49193;SDS011;35029;50.804;12.866;2023-07-02T07:58:55;5.07;;;2.70;;
49193;SDS011;35029;50.804;12.866;2023-07-02T08:01:21;2.55;;;2.28;;
49193;SDS011;35029;50.804;12.866;2023-07-02T08:03:47;2.50;;;2.30;;
49193;SDS011;35029;50.804;12.866;2023-07-02T08:06:12;3.20;;;2.30;;
49193;SDS011;35029;50.804;12.866;2023-07-02T08:08:38;2.58;;;2.38;;
49193;SDS011;35029;50.804;12.866;2023-07-02T08:11:03;2.10;;;1.90;;
49193;SDS011;35029;50.804;12.866;2023-07-02T08:13:29;2.53;;;2.17;;
49193;SDS011;35029;50.804;12.866;2023-07-02T08:15:54;2.95;;;2.20;;
49193;SDS011;35029;50.804;12.866;2023-07-02T08:18:20;3.03;;;2.20;;
49193;SDS011;35029;50.804;12.866;2023-07-02T08:20:45;4.43;;;2.20;;
49193;SDS011;35029;50.804;12.866;2023-07-02T08:23:11;2.38;;;2.03;;
49193;SDS011;35029;50.804;12.866;2023-07-02T08:25:37;3.05;;;1.60;;
49193;SDS011;35029;50.804;12.866;2023-07-02T08:28:02;3.50;;;2.35;;
49193;SDS011;35029;50.804;12.866;2023-07-02T08:30:28;2.20;;;1.98;;
49193;SDS011;35029;50.804;12.866;2023-07-02T08:32:53;2.22;;;1.85;;
49193;SDS011;35029;50.804;12.866;2023-07-02T08:35:20;2.25;;;2.00;;
49193;SDS011;35029;50.804;12.866;2023-07-02T08:37:45;3.42;;;1.67;;
49193;SDS011;35029;50.804;12.866;2023-07-02T08:40:17;2.42;;;1.70;;
49193;SDS011;35029;50.804;12.866;2023-07-02T08:42:44;4.93;;;2.03;;
49193;SDS011;35029;50.804;12.866;2023-07-02T08:45:12;4.05;;;1.92;;
49193;SDS011;35029;50.804;12.866;2023-07-02T08:47:39;1.85;;;1.67;;
49193;SDS011;35029;50.804;12.866;2023-07-02T08:50:05;2.17;;;1.80;;
49193;SDS011;35029;50.804;12.866;2023-07-02T08:52:31;2.40;;;2.20;;
49193;SDS011;35029;50.804;12.866;2023-07-02T08:54:57;1.75;;;1.65;;
49193;SDS011;35029;50.804;12.866;2023-07-02T08:57:22;1.63;;;1.52;;
49193;SDS011;35029;50.804;12.866;2023-07-02T08:59:48;2.33;;;1.95;;
49193;SDS011;35029;50.804;12.866;2023-07-02T09:02:16;4.00;;;1.70;;
49193;SDS011;35029;50.804;12.866;2023-07-02T09:04:42;2.35;;;1.67;;
49193;SDS011;35029;50.804;12.866;2023-07-02T09:07:09;1.92;;;1.70;;
49193;SDS011;35029;50.804;12.866;2023-07-02T09:09:45;1.60;;;1.50;;
49193;SDS011;35029;50.804;12.866;2023-07-02T09:15:07;2.00;;;1.80;;
49193;SDS011;35029;50.804;12.866;2023-07-02T09:17:34;1.67;;;1.52;;
49193;SDS011;35029;50.804;12.866;2023-07-02T09:20:02;2.83;;;1.63;;
49193;SDS011;35029;50.804;12.866;2023-07-02T09:22:31;2.60;;;1.60;;
49193;SDS011;35029;50.804;12.866;2023-07-02T09:24:58;2.30;;;1.42;;
49193;SDS011;35029;50.804;12.866;2023-07-02T09:27:38;2.42;;;1.50;;
49193;SDS011;35029;50.804;12.866;2023-07-02T09:30:14;2.58;;;1.27;;
49193;SDS011;35029;50.804;12.866;2023-07-02T09:32:44;3.05;;;2.05;;
49193;SDS011;35029;50.804;12.866;2023-07-02T09:35:11;1.67;;;1.58;;
49193;SDS011;35029;50.804;12.866;2023-07-02T09:37:38;2.75;;;1.75;;
49193;SDS011;35029;50.804;12.866;2023-07-02T09:40:04;1.98;;;1.55;;
49193;SDS011;35029;50.804;12.866;2023-07-02T09:42:34;2.67;;;1.40;;
49193;SDS011;35029;50.804;12.866;2023-07-02T09:45:03;1.70;;;1.58;;
49193;SDS011;35029;50.804;12.866;2023-07-02T09:50:02;1.60;;;1.40;;
49193;SDS011;35029;50.804;12.866;2023-07-02T09:54:56;1.85;;;1.30;;
49193;SDS011;35029;50.804;12.866;2023-07-02T09:57:22;1.60;;;1.50;;
49193;SDS011;35029;50.804;12.866;2023-07-02T09:59:48;1.60;;;1.50;;
49193;SDS011;35029;50.804;12.866;2023-07-02T10:02:13;2.10;;;1.65;;
49193;SDS011;35029;50.804;12.866;2023-07-02T10:04:43;2.28;;;1.75;;
49193;SDS011;35029;50.804;12.866;2023-07-02T10:12:15;3.25;;;1.65;;
49193;SDS011;35029;50.804;12.866;2023-07-02T10:14:44;1.65;;;1.40;;
49193;SDS011;35029;50.804;12.866;2023-07-02T10:17:22;5.18;;;1.92;;
49193;SDS011;35029;50.804;12.866;2023-07-02T10:19:58;2.47;;;1.70;;
49193;SDS011;35029;50.804;12.866;2023-07-02T10:22:25;4.07;;;1.88;;
49193;SDS011;35029;50.804;12.866;2023-07-02T10:27:17;5.50;;;3.78;;
49193;SDS011;35029;50.804;12.866;2023-07-02T10:29:48;7.25;;;4.13;;
49193;SDS011;35029;50.804;12.866;2023-07-02T10:32:14;3.95;;;2.53;;
49193;SDS011;35029;50.804;12.866;2023-07-02T10:34:52;11.07;;;6.93;;
49193;SDS011;35029;50.804;12.866;2023-07-02T10:37:18;3.25;;;1.77;;
49193;SDS011;35029;50.804;12.866;2023-07-02T10:39:43;2.47;;;2.20;;
49193;SDS011;35029;50.804;12.866;2023-07-02T10:42:09;2.30;;;1.77;;
49193;SDS011;35029;50.804;12.866;2023-07-02T10:44:46;2.38;;;1.90;;
49193;SDS011;35029;50.804;12.866;2023-07-02T10:47:13;2.85;;;2.00;;
49193;SDS011;35029;50.804;12.866;2023-07-02T10:49:39;3.53;;;2.00;;
49193;SDS011;35029;50.804;12.866;2023-07-02T10:52:04;2.28;;;1.92;;
49193;SDS011;35029;50.804;12.866;2023-07-02T10:54:43;4.43;;;2.40;;
49193;SDS011;35029;50.804;12.866;2023-07-02T10:57:10;2.55;;;1.90;;
49193;SDS011;35029;50.804;12.866;2023-07-02T10:59:38;3.10;;;2.10;;
49193;SDS011;35029;50.804;12.866;2023-07-02T11:02:04;5.15;;;2.20;;
49193;SDS011;35029;50.804;12.866;2023-07-02T11:04:31;2.58;;;2.25;;
49193;SDS011;35029;50.804;12.866;2023-07-02T11:06:59;2.75;;;2.15;;
49193;SDS011;35029;50.804;12.866;2023-07-02T11:09:29;3.25;;;1.90;;
49193;SDS011;35029;50.804;12.866;2023-07-02T11:11:58;2.53;;;2.33;;
49193;SDS011;35029;50.804;12.866;2023-07-02T11:14:26;3.15;;;2.13;;
49193;SDS011;35029;50.804;12.866;2023-07-02T11:16:58;2.42;;;2.08;;
49193;SDS011;35029;50.804;12.866;2023-07-02T11:19:25;2.57;;;2.00;;
49193;SDS011;35029;50.804;12.866;2023-07-02T11:21:56;3.00;;;2.05;;
49193;SDS011;35029;50.804;12.866;2023-07-02T11:24:31;3.53;;;2.50;;
49193;SDS011;35029;50.804;12.866;2023-07-02T11:27:01;3.53;;;2.38;;
49193;SDS011;35029;50.804;12.866;2023-07-02T11:29:29;2.30;;;2.10;;
49193;SDS011;35029;50.804;12.866;2023-07-02T11:32:04;2.25;;;2.05;;
49193;SDS011;35029;50.804;12.866;2023-07-02T11:34:37;4.97;;;2.55;;
49193;SDS011;35029;50.804;12.866;2023-07-02T11:37:04;3.50;;;2.67;;
49193;SDS011;35029;50.804;12.866;2023-07-02T11:39:30;3.42;;;2.30;;
49193;SDS011;35029;50.804;12.866;2023-07-02T11:41:56;3.72;;;2.58;;
49193;SDS011;35029;50.804;12.866;2023-07-02T11:44:22;6.93;;;2.38;;
49193;SDS011;35029;50.804;12.866;2023-07-02T11:46:48;6.40;;;2.47;;
49193;SDS011;35029;50.804;12.866;2023-07-02T11:49:14;2.90;;;2.38;;
49193;SDS011;35029;50.804;12.866;2023-07-02T11:51:40;5.05;;;2.80;;
49193;SDS011;35029;50.804;12.866;2023-07-02T11:54:06;3.53;;;2.33;;
49193;SDS011;35029;50.804;12.866;2023-07-02T11:56:32;3.35;;;2.60;;
49193;SDS011;35029;50.804;12.866;2023-07-02T11:58:59;2.72;;;2.50;;
49193;SDS011;35029;50.804;12.866;2023-07-02T12:01:24;4.10;;;2.28;;
49193;SDS011;35029;50.804;12.866;2023-07-02T12:03:50;4.65;;;2.13;;
49193;SDS011;35029;50.804;12.866;2023-07-02T12:06:16;3.22;;;2.30;;
49193;SDS011;35029;50.804;12.866;2023-07-02T12:08:42;3.17;;;2.00;;
49193;SDS011;35029;50.804;12.866;2023-07-02T12:11:08;3.47;;;2.03;;
49193;SDS011;35029;50.804;12.866;2023-07-02T12:13:33;4.93;;;2.30;;
49193;SDS011;35029;50.804;12.866;2023-07-02T12:15:59;3.65;;;2.50;;
49193;SDS011;35029;50.804;12.866;2023-07-02T12:18:25;4.32;;;2.30;;
49193;SDS011;35029;50.804;12.866;2023-07-02T12:20:50;3.08;;;1.88;;
49193;SDS011;35029;50.804;12.866;2023-07-02T12:23:16;3.22;;;2.00;;
49193;SDS011;35029;50.804;12.866;2023-07-02T12:25:41;3.55;;;2.30;;
49193;SDS011;35029;50.804;12.866;2023-07-02T12:28:08;5.88;;;2.05;;
49193;SDS011;35029;50.804;12.866;2023-07-02T12:30:34;3.78;;;2.33;;
49193;SDS011;35029;50.804;12.866;2023-07-02T12:32:59;2.60;;;1.90;;
49193;SDS011;35029;50.804;12.866;2023-07-02T12:35:25;2.95;;;2.00;;
49193;SDS011;35029;50.804;12.866;2023-07-02T12:37:51;8.50;;;2.40;;
49193;SDS011;35029;50.804;12.866;2023-07-02T12:40:18;2.63;;;2.28;;
49193;SDS011;35029;50.804;12.866;2023-07-02T12:42:46;6.13;;;2.03;;
49193;SDS011;35029;50.804;12.866;2023-07-02T12:45:13;5.63;;;2.72;;
49193;SDS011;35029;50.804;12.866;2023-07-02T12:47:40;2.85;;;2.05;;
49193;SDS011;35029;50.804;12.866;2023-07-02T12:50:07;5.45;;;2.65;;
49193;SDS011;35029;50.804;12.866;2023-07-02T12:52:34;3.00;;;2.25;;
49193;SDS011;35029;50.804;12.866;2023-07-02T12:54:59;5.63;;;2.10;;
49193;SDS011;35029;50.804;12.866;2023-07-02T12:57:26;4.15;;;2.58;;
49193;SDS011;35029;50.804;12.866;2023-07-02T12:59:55;3.75;;;2.30;;
49193;SDS011;35029;50.804;12.866;2023-07-02T13:02:21;4.75;;;2.50;;
49193;SDS011;35029;50.804;12.866;2023-07-02T13:04:48;4.97;;;2.53;;
49193;SDS011;35029;50.804;12.866;2023-07-02T13:07:14;4.90;;;2.60;;
49193;SDS011;35029;50.804;12.866;2023-07-02T13:09:40;6.13;;;2.55;;
49193;SDS011;35029;50.804;12.866;2023-07-02T13:12:05;2.92;;;2.10;;
49193;SDS011;35029;50.804;12.866;2023-07-02T13:14:31;6.15;;;2.60;;
49193;SDS011;35029;50.804;12.866;2023-07-02T13:16:57;3.67;;;2.05;;
49193;SDS011;35029;50.804;12.866;2023-07-02T13:19:24;3.85;;;2.80;;
49193;SDS011;35029;50.804;12.866;2023-07-02T13:21:50;4.97;;;2.65;;
49193;SDS011;35029;50.804;12.866;2023-07-02T13:24:15;6.20;;;2.78;;
49193;SDS011;35029;50.804;12.866;2023-07-02T13:26:42;5.70;;;2.15;;
49193;SDS011;35029;50.804;12.866;2023-07-02T13:29:07;5.78;;;2.72;;
49193;SDS011;35029;50.804;12.866;2023-07-02T13:31:33;5.25;;;2.88;;
49193;SDS011;35029;50.804;12.866;2023-07-02T13:33:58;3.85;;;2.80;;
49193;SDS011;35029;50.804;12.866;2023-07-02T13:36:24;4.72;;;2.65;;
49193;SDS011;35029;50.804;12.866;2023-07-02T13:38:50;4.25;;;2.70;;
49193;SDS011;35029;50.804;12.866;2023-07-02T13:41:15;3.97;;;3.00;;
49193;SDS011;35029;50.804;12.866;2023-07-02T13:43:41;4.07;;;3.03;;
49193;SDS011;35029;50.804;12.866;2023-07-02T13:46:08;4.82;;;2.75;;
49193;SDS011;35029;50.804;12.866;2023-07-02T13:48:33;7.38;;;3.03;;
49193;SDS011;35029;50.804;12.866;2023-07-02T13:51:00;4.50;;;2.85;;
49193;SDS011;35029;50.804;12.866;2023-07-02T13:53:25;6.10;;;3.13;;
49193;SDS011;35029;50.804;12.866;2023-07-02T13:55:51;5.55;;;3.28;;
49193;SDS011;35029;50.804;12.866;2023-07-02T13:58:16;8.63;;;3.20;;
49193;SDS011;35029;50.804;12.866;2023-07-02T14:00:42;5.22;;;3.30;;
49193;SDS011;35029;50.804;12.866;2023-07-02T14:03:08;8.75;;;3.53;;
49193;SDS011;35029;50.804;12.866;2023-07-02T14:05:33;5.32;;;3.30;;
49193;SDS011;35029;50.804;12.866;2023-07-02T14:07:59;4.88;;;3.50;;
49193;SDS011;35029;50.804;12.866;2023-07-02T14:10:25;7.18;;;3.15;;
49193;SDS011;35029;50.804;12.866;2023-07-02T14:12:51;4.00;;;3.15;;
49193;SDS011;35029;50.804;12.866;2023-07-02T14:15:17;5.30;;;3.80;;
49193;SDS011;35029;50.804;12.866;2023-07-02T14:17:42;6.10;;;3.70;;
49193;SDS011;35029;50.804;12.866;2023-07-02T14:20:08;4.55;;;3.65;;
49193;SDS011;35029;50.804;12.866;2023-07-02T14:22:35;6.55;;;4.07;;
49193;SDS011;35029;50.804;12.866;2023-07-02T14:25:00;5.25;;;4.47;;
49193;SDS011;35029;50.804;12.866;2023-07-02T14:27:26;5.40;;;4.13;;
49193;SDS011;35029;50.804;12.866;2023-07-02T14:29:51;4.65;;;3.65;;
49193;SDS011;35029;50.804;12.866;2023-07-02T14:32:17;5.63;;;4.32;;
49193;SDS011;35029;50.804;12.866;2023-07-02T14:34:43;7.03;;;4.45;;
49193;SDS011;35029;50.804;12.866;2023-07-02T14:37:09;5.63;;;4.30;;
49193;SDS011;35029;50.804;12.866;2023-07-02T14:39:35;5.68;;;4.15;;
49193;SDS011;35029;50.804;12.866;2023-07-02T14:42:00;7.57;;;4.43;;
49193;SDS011;35029;50.804;12.866;2023-07-02T14:44:26;6.32;;;4.15;;
49193;SDS011;35029;50.804;12.866;2023-07-02T14:46:51;6.57;;;3.90;;
49193;SDS011;35029;50.804;12.866;2023-07-02T14:49:17;6.53;;;4.20;;